createdAt,value
2018-07-10T00:02:29.835Z,67.35
2018-07-10T00:07:35.476Z,67.48
2018-07-10T00:10:30.458Z,66.13
2018-07-10T00:12:59.570Z,65.88
2018-07-10T00:15:28.457Z,65.68
2018-07-10T00:17:57.349Z,65.63
2018-07-10T00:20:26.272Z,64.80
2018-07-10T00:22:55.246Z,63.89
2018-07-10T00:25:24.149Z,63.66
2018-07-10T00:27:53.038Z,63.07
2018-07-10T00:30:21.968Z,62.24
2018-07-10T00:32:50.868Z,62.71
2018-07-10T00:35:19.793Z,62.72
2018-07-10T00:38:03.413Z,63.56
2018-07-10T00:40:32.318Z,63.05
2018-07-10T00:43:01.794Z,63.08
2018-07-10T00:45:30.679Z,62.92
2018-07-10T00:47:59.601Z,63.42
2018-07-10T00:50:28.505Z,63.53
2018-07-10T00:52:57.560Z,63.00
2018-07-10T00:55:26.454Z,63.88
2018-07-10T00:57:55.388Z,63.93
2018-07-10T01:00:29.778Z,63.71
2018-07-10T01:02:58.868Z,64.31
2018-07-10T01:05:27.806Z,65.44
2018-07-10T01:07:57.673Z,64.96
2018-07-10T01:10:26.712Z,65.70
2018-07-10T01:12:55.625Z,65.58
2018-07-10T01:15:26.070Z,64.83
2018-07-10T01:17:55.166Z,64.67
2018-07-10T01:20:24.329Z,66.07
2018-07-10T01:22:53.909Z,66.20
2018-07-10T01:25:23.145Z,67.08
2018-07-10T01:27:52.094Z,67.32
2018-07-10T01:30:21.036Z,67.86
2018-07-10T01:32:49.953Z,68.00
2018-07-10T01:35:18.980Z,68.16
2018-07-10T01:37:47.865Z,68.27
2018-07-10T01:40:16.757Z,68.88
2018-07-10T01:42:45.833Z,68.05
2018-07-10T01:45:14.736Z,68.07
2018-07-10T01:47:43.631Z,67.86
2018-07-10T01:50:12.542Z,67.78
2018-07-10T01:52:41.452Z,68.14
2018-07-10T01:55:10.383Z,68.29
2018-07-10T01:57:39.529Z,66.74
2018-07-10T02:00:08.841Z,67.38
2018-07-10T02:02:38.487Z,67.98
2018-07-10T02:05:07.534Z,67.63
2018-07-10T02:07:36.471Z,66.89
2018-07-10T02:10:05.377Z,66.62
2018-07-10T02:12:34.268Z,67.46
2018-07-10T02:15:03.202Z,68.14
2018-07-10T02:17:32.107Z,67.56
2018-07-10T02:20:01.052Z,67.36
2018-07-10T02:22:29.940Z,67.76
2018-07-10T02:24:58.881Z,68.24
2018-07-10T02:27:27.789Z,67.27
2018-07-10T02:29:56.717Z,67.03
2018-07-10T02:32:25.613Z,67.03
2018-07-10T02:34:54.532Z,66.65
2018-07-10T02:37:23.617Z,66.55
2018-07-10T02:39:52.524Z,66.37
2018-07-10T02:42:22.230Z,66.22
2018-07-10T02:44:51.159Z,66.07
2018-07-10T02:47:20.159Z,65.89
2018-07-10T02:49:49.398Z,66.51
2018-07-10T02:52:18.317Z,66.41
2018-07-10T02:54:47.219Z,66.39
2018-07-10T02:57:16.135Z,66.14
2018-07-10T02:59:46.317Z,67.10
2018-07-10T03:02:20.329Z,67.25
2018-07-10T03:04:50.235Z,66.96
2018-07-10T03:07:19.130Z,67.75
2018-07-10T03:09:48.487Z,67.89
2018-07-10T03:12:17.792Z,68.00
2018-07-10T03:14:46.734Z,67.75
2018-07-10T03:17:18.938Z,68.23
2018-07-10T03:19:48.124Z,67.90
2018-07-10T03:22:17.385Z,68.10
2018-07-10T03:24:47.369Z,67.70
2018-07-10T03:27:16.281Z,67.08
2018-07-10T03:29:45.194Z,67.81
2018-07-10T03:32:14.102Z,68.58
2018-07-10T03:34:43.014Z,68.17
2018-07-10T03:37:12.103Z,67.81
2018-07-10T03:39:42.350Z,67.76
2018-07-10T03:42:12.570Z,67.99
2018-07-10T03:44:42.822Z,68.80
2018-07-10T03:47:13.223Z,68.12
2018-07-10T03:49:42.734Z,68.02
2018-07-10T03:52:12.881Z,68.76
2018-07-10T03:54:42.580Z,68.52
2018-07-10T03:57:12.763Z,68.89
2018-07-10T03:59:46.180Z,68.50
2018-07-10T04:02:15.074Z,68.34
2018-07-10T04:04:44.282Z,68.05
2018-07-10T04:07:13.563Z,67.72
2018-07-10T04:09:42.506Z,68.38
2018-07-10T04:12:11.463Z,68.94
2018-07-10T04:14:40.938Z,68.13
2018-07-10T04:17:10.518Z,68.29
2018-07-10T04:19:39.431Z,67.83
2018-07-10T04:22:08.399Z,67.52
2018-07-10T04:24:38.737Z,67.65
2018-07-10T04:27:20.590Z,67.17
2018-07-10T04:29:53.139Z,66.82
2018-07-10T04:32:22.588Z,67.07
2018-07-10T04:34:51.522Z,66.22
2018-07-10T04:37:20.479Z,65.75
2018-07-10T04:39:49.367Z,65.93
2018-07-10T04:42:28.382Z,65.82
2018-07-10T04:45:07.076Z,65.86
2018-07-10T04:47:48.635Z,65.06
2018-07-10T04:50:21.358Z,65.02
2018-07-10T04:52:55.099Z,65.17
2018-07-10T04:55:24.450Z,64.87
2018-07-10T04:58:09.661Z,64.77
2018-07-10T05:00:44.907Z,64.33
2018-07-10T05:03:16.209Z,64.52
2018-07-10T05:05:45.438Z,64.74
2018-07-10T05:08:17.037Z,64.30
2018-07-10T05:10:45.979Z,63.94
2018-07-10T05:13:14.884Z,63.66
2018-07-10T05:15:43.893Z,64.64
2018-07-10T05:18:12.791Z,64.69
2018-07-10T05:20:44.351Z,65.08
2018-07-10T05:23:15.317Z,65.57
2018-07-10T05:25:48.441Z,64.69
2018-07-10T05:28:17.619Z,65.67
2018-07-10T05:30:46.529Z,66.30
2018-07-10T05:33:16.404Z,66.46
2018-07-10T05:35:45.716Z,66.21
2018-07-10T05:38:14.681Z,66.34
2018-07-10T05:40:44.198Z,67.05
2018-07-10T05:43:15.435Z,67.70
2018-07-10T05:45:44.744Z,67.42
2018-07-10T05:48:16.282Z,66.79
2018-07-10T05:50:45.261Z,67.80
2018-07-10T05:53:14.170Z,68.01
2018-07-10T05:55:45.625Z,67.54
2018-07-10T05:58:14.549Z,67.72
2018-07-10T06:00:43.457Z,68.38
2018-07-10T06:03:12.374Z,68.30
2018-07-10T06:05:41.688Z,67.29
2018-07-10T06:08:12.383Z,66.86
2018-07-10T06:10:41.571Z,66.71
2018-07-10T06:13:10.489Z,67.03
2018-07-10T06:15:39.422Z,67.11
2018-07-10T06:18:08.330Z,66.36
2018-07-10T06:20:37.253Z,65.78
2018-07-10T06:23:06.254Z,66.38
2018-07-10T06:25:35.928Z,66.46
2018-07-10T06:28:08.835Z,66.30
2018-07-10T06:30:38.827Z,66.37
2018-07-10T06:33:18.820Z,66.43
2018-07-10T06:35:53.342Z,66.25
2018-07-10T06:38:22.276Z,65.51
2018-07-10T06:40:51.903Z,66.02
2018-07-10T06:43:25.971Z,65.53
2018-07-10T06:45:54.930Z,65.37
2018-07-10T06:48:23.934Z,65.56
2018-07-10T06:50:52.818Z,65.34
2018-07-10T06:53:25.075Z,65.14
2018-07-10T06:55:56.311Z,65.35
2018-07-10T06:58:25.848Z,64.68
2018-07-10T07:00:56.122Z,64.99
2018-07-10T07:03:26.148Z,64.62
2018-07-10T07:05:55.069Z,64.58
2018-07-10T07:08:27.123Z,64.58
2018-07-10T07:10:56.038Z,64.63
2018-07-10T07:13:24.925Z,64.00
2018-07-10T07:15:53.876Z,65.10
2018-07-10T07:18:22.748Z,65.18
2018-07-10T07:20:51.659Z,65.60
2018-07-10T07:23:20.561Z,65.49
2018-07-10T07:25:52.845Z,65.02
2018-07-10T07:28:21.740Z,64.27
2018-07-10T07:30:50.658Z,65.35
2018-07-10T07:33:19.572Z,64.53
2018-07-10T07:35:48.458Z,63.97
2018-07-10T07:38:17.606Z,64.37
2018-07-10T07:40:46.532Z,63.92
2018-07-10T07:43:15.437Z,63.18
2018-07-10T07:45:44.352Z,64.01
2018-07-10T07:48:13.469Z,63.57
2018-07-10T07:50:42.474Z,62.98
2018-07-10T07:53:11.505Z,63.24
2018-07-10T07:55:41.437Z,63.68
2018-07-10T07:58:10.340Z,63.29
2018-07-10T08:00:39.521Z,62.43
2018-07-10T08:03:08.731Z,62.22
2018-07-10T08:05:37.988Z,62.79
2018-07-10T08:08:07.181Z,62.82
2018-07-10T08:10:36.256Z,62.79
2018-07-10T08:13:05.170Z,62.81
2018-07-10T08:15:34.178Z,62.64
2018-07-10T08:18:03.154Z,63.06
2018-07-10T08:20:32.037Z,62.55
2018-07-10T08:23:00.975Z,63.18
2018-07-10T08:25:29.862Z,63.58
2018-07-10T08:27:58.777Z,64.24
2018-07-10T08:30:27.765Z,63.37
2018-07-10T08:32:57.260Z,63.45
2018-07-10T08:35:26.840Z,63.64
2018-07-10T08:37:56.787Z,64.28
2018-07-10T08:40:26.662Z,64.26
2018-07-10T08:42:56.397Z,65.16
2018-07-10T08:45:25.325Z,65.50
2018-07-10T08:47:54.663Z,66.13
2018-07-10T08:50:23.614Z,66.02
2018-07-10T08:52:52.708Z,67.87
2018-07-10T08:55:21.591Z,68.00
2018-07-10T08:57:50.498Z,69.08
2018-07-10T09:00:19.400Z,69.25
2018-07-10T09:02:48.649Z,67.43
2018-07-10T09:05:17.520Z,67.52
2018-07-10T09:07:46.597Z,68.35
2018-07-10T09:10:15.479Z,69.26
2018-07-10T09:12:44.663Z,69.42
2018-07-10T09:15:13.590Z,68.71
2018-07-10T09:17:42.576Z,68.43
2018-07-10T09:20:11.776Z,70.02
2018-07-10T09:22:40.749Z,70.72
2018-07-10T09:25:13.309Z,70.91
2018-07-10T09:27:42.239Z,71.49
2018-07-10T09:30:11.198Z,70.71
2018-07-10T09:32:45.420Z,71.38
2018-07-10T09:35:14.353Z,70.44
2018-07-10T09:37:44.705Z,71.24
2018-07-10T09:40:16.795Z,69.62
2018-07-10T09:42:58.465Z,69.60
2018-07-10T09:45:31.623Z,69.63
2018-07-10T09:48:00.743Z,70.06
2018-07-10T09:50:29.668Z,70.28
2018-07-10T09:52:58.616Z,70.38
2018-07-10T09:55:27.537Z,69.18
2018-07-10T09:57:57.873Z,69.08
2018-07-10T10:00:32.242Z,69.38
2018-07-10T10:03:01.304Z,67.49
2018-07-10T10:05:37.233Z,68.57
2018-07-10T10:08:06.163Z,68.38
2018-07-10T10:10:35.088Z,66.71
2018-07-10T10:13:03.974Z,67.04
2018-07-10T10:15:34.884Z,66.43
2018-07-10T10:18:06.611Z,65.84
2018-07-10T10:20:37.050Z,66.72
2018-07-10T10:23:06.584Z,66.64
2018-07-10T10:25:37.899Z,65.79
2018-07-10T10:28:08.424Z,65.88
2018-07-10T10:30:39.619Z,66.37
2018-07-10T10:33:09.568Z,66.16
2018-07-10T10:35:38.880Z,66.69
2018-07-10T10:38:08.059Z,66.54
2018-07-10T10:40:38.787Z,65.91
2018-07-10T10:43:10.634Z,65.95
2018-07-10T10:45:42.484Z,66.17
2018-07-10T10:48:13.246Z,65.96
2018-07-10T10:50:46.917Z,66.52
2018-07-10T10:53:15.872Z,66.26
2018-07-10T10:55:44.772Z,66.45
2018-07-10T10:58:13.709Z,66.13
2018-07-10T11:00:42.680Z,66.11
2018-07-10T11:03:11.621Z,66.51
2018-07-10T11:05:40.910Z,66.68
2018-07-10T11:08:10.001Z,66.25
2018-07-10T11:10:43.867Z,66.48
2018-07-10T11:13:14.914Z,66.60
2018-07-10T11:15:45.608Z,66.86
2018-07-10T11:18:24.290Z,66.37
2018-07-10T11:21:16.311Z,66.92
2018-07-10T11:23:54.248Z,67.49
2018-07-10T11:26:31.470Z,67.10
2018-07-10T11:29:00.393Z,67.87
2018-07-10T11:31:29.473Z,67.16
2018-07-10T11:33:58.413Z,67.58
2018-07-10T11:36:27.384Z,67.33
2018-07-10T11:39:00.528Z,68.43
2018-07-10T11:41:31.087Z,68.83
2018-07-10T11:44:03.212Z,68.96
2018-07-10T11:46:32.274Z,69.45
2018-07-10T11:49:01.193Z,69.88
2018-07-10T11:51:30.324Z,70.29
2018-07-10T11:53:59.283Z,70.58
2018-07-10T11:56:28.277Z,70.77
2018-07-10T11:58:57.323Z,71.74
2018-07-10T12:01:26.825Z,71.69
2018-07-10T12:03:57.002Z,71.79
2018-07-10T12:06:26.741Z,71.68
2018-07-10T12:08:56.718Z,72.56
2018-07-10T12:11:27.933Z,73.37
2018-07-10T12:13:56.853Z,73.95
2018-07-10T12:16:25.756Z,74.82
2018-07-10T12:18:54.712Z,74.68
2018-07-10T12:21:23.629Z,75.37
2018-07-10T12:23:52.544Z,75.57
2018-07-10T12:26:22.440Z,75.86
2018-07-10T12:28:51.822Z,75.21
2018-07-10T12:31:20.814Z,74.95
2018-07-10T12:33:49.717Z,74.54
2018-07-10T12:36:18.678Z,74.65
2018-07-10T12:38:47.649Z,74.57
2018-07-10T12:41:17.080Z,74.44
2018-07-10T12:43:45.969Z,74.13
2018-07-10T12:46:14.914Z,74.68
2018-07-10T12:48:43.848Z,75.35
2018-07-10T12:51:12.779Z,75.90
2018-07-10T12:53:41.721Z,76.20
2018-07-10T12:56:10.657Z,76.06
2018-07-10T12:58:41.684Z,75.50
2018-07-10T13:01:10.873Z,75.36
2018-07-10T13:03:39.950Z,75.42
2018-07-10T13:06:09.029Z,74.66
2018-07-10T13:08:37.918Z,73.69
2018-07-10T13:11:06.845Z,74.30
2018-07-10T13:13:35.790Z,73.78
2018-07-10T13:16:04.698Z,73.13
2018-07-10T13:18:34.122Z,73.11
2018-07-10T13:21:03.095Z,72.79
2018-07-10T13:23:32.016Z,72.21
2018-07-10T13:26:00.925Z,70.97
2018-07-10T13:28:29.880Z,71.01
2018-07-10T13:30:58.777Z,71.87
2018-07-10T13:33:27.906Z,71.96
2018-07-10T13:35:56.823Z,71.50
2018-07-10T13:38:25.743Z,71.79
2018-07-10T13:40:57.926Z,71.65
2018-07-10T13:43:27.349Z,71.22
2018-07-10T13:45:56.261Z,70.61
2018-07-10T13:48:25.242Z,70.96
2018-07-10T13:50:54.160Z,70.67
2018-07-10T13:53:23.339Z,70.47
2018-07-10T13:55:52.559Z,69.59
2018-07-10T13:58:24.800Z,70.28
2018-07-10T14:00:56.600Z,70.41
2018-07-10T14:03:26.333Z,70.24
2018-07-10T14:05:55.629Z,70.50
2018-07-10T14:08:25.038Z,71.18
2018-07-10T14:10:53.928Z,71.21
2018-07-10T14:13:22.886Z,71.48
2018-07-10T14:15:51.790Z,71.48
2018-07-10T14:18:20.707Z,71.33
2018-07-10T14:20:53.294Z,71.69
2018-07-10T14:23:22.692Z,70.97
2018-07-10T14:25:52.350Z,71.68
2018-07-10T14:28:25.018Z,72.03
2018-07-10T14:30:53.865Z,72.05
2018-07-10T14:33:23.114Z,72.30
2018-07-10T14:35:52.101Z,72.81
2018-07-10T14:38:24.438Z,72.35
2018-07-10T14:40:54.079Z,72.38
2018-07-10T14:43:27.516Z,72.02
2018-07-10T14:46:01.282Z,71.76
2018-07-10T14:48:34.165Z,71.64
2018-07-10T14:51:04.098Z,71.85
2018-07-10T14:53:36.138Z,72.84
2018-07-10T14:56:05.254Z,71.66
2018-07-10T14:58:34.164Z,71.91
2018-07-10T15:01:03.126Z,72.81
2018-07-10T15:03:32.058Z,72.84
2018-07-10T15:06:00.992Z,72.85
2018-07-10T15:08:29.930Z,73.17
2018-07-10T15:11:04.327Z,72.38
2018-07-10T15:13:44.477Z,71.89
2018-07-10T15:16:13.400Z,71.27
2018-07-10T15:18:46.094Z,72.04
2018-07-10T15:21:15.061Z,72.57
2018-07-10T15:23:43.981Z,73.58
2018-07-10T15:26:12.873Z,74.62
2018-07-10T15:28:41.802Z,74.92
2018-07-10T15:31:10.754Z,75.15
2018-07-10T15:33:39.643Z,75.69
2018-07-10T15:36:08.576Z,77.18
2018-07-10T15:38:37.494Z,78.77
2018-07-10T15:41:06.762Z,78.50
2018-07-10T15:43:35.665Z,79.12
2018-07-10T15:46:04.600Z,80.63
2018-07-10T15:48:33.530Z,80.21
2018-07-10T15:51:02.445Z,78.76
2018-07-10T15:53:31.388Z,78.88
2018-07-10T15:56:00.286Z,79.29
2018-07-10T15:58:29.221Z,78.98
2018-07-10T16:00:58.143Z,78.59
2018-07-10T16:03:27.049Z,78.00
2018-07-10T16:05:56.237Z,79.61
2018-07-10T16:08:25.171Z,78.71
2018-07-10T16:10:57.444Z,78.47
2018-07-10T16:13:28.034Z,78.57
2018-07-10T16:15:58.730Z,78.68
2018-07-10T16:18:29.321Z,78.48
2018-07-10T16:21:01.341Z,79.01
2018-07-10T16:23:30.850Z,80.03
2018-07-10T16:26:10.904Z,79.45
2018-07-10T16:28:41.068Z,78.92
2018-07-10T16:31:14.467Z,77.75
2018-07-10T16:33:47.235Z,77.37
2018-07-10T16:36:17.024Z,76.68
2018-07-10T16:38:45.947Z,76.11
2018-07-10T16:41:23.360Z,72.15
2018-07-10T16:43:52.519Z,70.03
2018-07-10T16:46:26.268Z,71.14
2018-07-10T16:48:58.858Z,70.68
2018-07-10T16:51:31.536Z,70.08
2018-07-10T16:54:01.817Z,61.04
2018-07-10T16:56:30.717Z,59.55
2018-07-10T16:58:59.765Z,58.91
2018-07-10T17:01:29.334Z,57.78
2018-07-10T17:03:58.723Z,56.63
2018-07-10T17:06:27.796Z,55.38
2018-07-10T17:08:56.748Z,54.83
2018-07-10T17:11:25.704Z,55.15
2018-07-10T17:13:54.635Z,54.24
2018-07-10T17:16:30.381Z,54.46
2018-07-10T17:18:59.363Z,55.00
2018-07-10T17:21:29.274Z,53.10
2018-07-10T17:24:01.159Z,53.16
2018-07-10T17:26:30.257Z,52.88
2018-07-10T17:29:02.485Z,52.34
2018-07-10T17:31:31.428Z,51.62
2018-07-10T17:34:01.071Z,51.75
2018-07-10T17:36:30.006Z,50.59
2018-07-10T17:38:59.422Z,50.51
2018-07-10T17:41:32.212Z,49.24
2018-07-10T17:44:01.699Z,49.09
2018-07-10T17:46:30.908Z,49.01
2018-07-10T17:48:59.831Z,48.28
2018-07-10T17:51:28.750Z,48.14
2018-07-10T17:53:57.669Z,48.80
2018-07-10T17:56:26.589Z,47.87
2018-07-10T17:58:55.528Z,47.53
2018-07-10T18:01:24.450Z,47.38
2018-07-10T18:03:53.342Z,47.06
2018-07-10T18:06:23.230Z,47.41
2018-07-10T18:08:52.164Z,45.54
2018-07-10T18:11:21.153Z,45.75
2018-07-10T18:13:50.193Z,46.47
2018-07-10T18:16:19.173Z,46.40
2018-07-10T18:18:48.380Z,46.39
2018-07-10T18:21:17.277Z,46.62
2018-07-10T18:23:46.378Z,46.21
2018-07-10T18:26:15.329Z,46.52
2018-07-10T18:28:44.270Z,47.33
2018-07-10T18:31:13.256Z,47.83
2018-07-10T18:33:42.161Z,48.64
2018-07-10T18:36:11.082Z,49.07
2018-07-10T18:38:40.011Z,49.44
2018-07-10T18:41:09.225Z,49.29
2018-07-10T18:43:38.113Z,49.32
2018-07-10T18:46:07.057Z,49.47
2018-07-10T18:48:36.007Z,49.81
2018-07-10T18:51:04.901Z,50.24
2018-07-10T18:53:33.860Z,50.59
2018-07-10T18:56:02.751Z,50.87
2018-07-10T18:58:35.477Z,50.94
2018-07-10T19:01:24.515Z,50.93
2018-07-10T19:03:54.090Z,50.96
2018-07-10T19:06:24.456Z,51.08
2018-07-10T19:08:54.658Z,51.50
2018-07-10T19:11:24.972Z,51.43
2018-07-10T19:13:53.904Z,51.80
2018-07-10T19:16:23.629Z,51.83
2018-07-10T19:18:53.344Z,51.34
2018-07-10T19:21:26.641Z,52.11
2018-07-10T19:23:57.804Z,51.63
2018-07-10T19:26:28.666Z,51.50
2018-07-10T19:29:11.396Z,51.24
2018-07-10T19:31:40.336Z,51.28
2018-07-10T19:34:09.263Z,51.48
2018-07-10T19:36:38.170Z,51.07
2018-07-10T19:39:07.721Z,51.12
2018-07-10T19:41:36.880Z,51.57
2018-07-10T19:44:05.805Z,51.58
2018-07-10T19:46:35.908Z,51.84
2018-07-10T19:49:05.394Z,52.05
2018-07-10T19:51:34.489Z,52.27
2018-07-10T19:54:14.324Z,52.11
2018-07-10T19:56:43.322Z,51.90
2018-07-10T19:59:13.680Z,51.95
2018-07-10T20:02:01.456Z,52.13
2018-07-10T20:04:38.009Z,52.33
2018-07-10T20:07:25.956Z,52.87
2018-07-10T20:10:05.218Z,52.90
2018-07-10T20:12:39.255Z,52.57
2018-07-10T20:15:51.628Z,52.59
2018-07-10T20:19:33.486Z,52.41
2018-07-10T20:22:12.649Z,52.78
2018-07-10T20:24:46.777Z,53.18
2018-07-10T20:28:25.641Z,53.23
2018-07-10T20:31:19.183Z,53.55
2018-07-10T20:34:27.571Z,53.23
2018-07-10T20:36:56.514Z,53.34
2018-07-10T20:39:33.885Z,54.12
2018-07-10T20:42:03.214Z,54.01
2018-07-10T20:44:50.408Z,54.19
2018-07-10T20:47:19.707Z,54.04
2018-07-10T20:49:55.115Z,54.23
2018-07-10T20:52:28.235Z,54.30
2018-07-10T20:55:04.270Z,53.59
2018-07-10T20:57:47.271Z,54.08
2018-07-10T21:00:16.370Z,54.09
2018-07-10T21:03:08.453Z,54.47
2018-07-10T21:05:39.355Z,54.28
2018-07-10T21:08:14.307Z,54.80
2018-07-10T21:10:52.916Z,54.77
2018-07-10T21:13:33.820Z,55.27
2018-07-10T21:16:07.931Z,55.12
2018-07-10T21:18:48.883Z,54.54
2018-07-10T21:21:44.346Z,54.35
2018-07-10T21:24:18.512Z,54.40
2018-07-10T21:26:54.207Z,54.22
2018-07-10T21:29:32.813Z,54.39
2018-07-10T21:32:03.798Z,54.83
2018-07-10T21:34:45.748Z,54.87
2018-07-10T21:41:42.149Z,54.75
2018-07-10T21:46:24.774Z,55.32
2018-07-10T21:49:00.091Z,56.06
2018-07-10T21:51:29.024Z,56.29
2018-07-10T21:53:57.945Z,56.95
2018-07-10T21:56:26.961Z,56.96
2018-07-10T21:58:55.766Z,58.02
2018-07-10T22:01:46.998Z,58.05
2018-07-10T22:04:18.937Z,58.18
2018-07-10T22:06:48.885Z,58.01
2018-07-10T22:09:18.104Z,57.89
2018-07-10T22:11:48.002Z,57.96
2018-07-10T22:14:17.477Z,58.00
2018-07-10T22:16:46.419Z,58.32
2018-07-10T22:19:18.637Z,58.43
2018-07-10T22:21:47.744Z,58.19
2018-07-10T22:24:16.665Z,58.23
2018-07-10T22:26:45.581Z,58.60
2018-07-10T22:29:14.579Z,58.31
2018-07-10T22:31:48.811Z,58.81
2018-07-10T22:34:17.778Z,58.45
2018-07-10T22:36:46.699Z,58.94
2018-07-10T22:39:15.978Z,58.76
2018-07-10T22:41:45.370Z,58.94
2018-07-10T22:44:14.264Z,58.92
2018-07-10T22:46:43.361Z,59.18
2018-07-10T22:49:14.055Z,59.28
2018-07-10T22:51:43.116Z,59.05
2018-07-10T22:54:12.001Z,59.23
2018-07-10T22:56:40.889Z,59.65
2018-07-10T22:59:09.785Z,59.74
2018-07-10T23:01:38.754Z,59.24
2018-07-10T23:04:07.643Z,59.92
2018-07-10T23:06:37.411Z,59.01
2018-07-10T23:09:06.553Z,59.65
2018-07-10T23:11:36.011Z,59.78
2018-07-10T23:14:04.909Z,59.86
2018-07-10T23:16:41.270Z,60.03
2018-07-10T23:19:10.203Z,60.10
2018-07-10T23:21:40.405Z,60.76
2018-07-10T23:24:09.759Z,60.53
2018-07-10T23:26:41.049Z,61.17
2018-07-10T23:29:10.873Z,60.66
2018-07-10T23:31:42.253Z,60.68
2018-07-10T23:34:14.680Z,60.85
2018-07-10T23:36:54.820Z,61.24
2018-07-10T23:39:29.156Z,61.07
2018-07-10T23:42:07.764Z,61.18
2018-07-10T23:44:40.888Z,61.35
2018-07-10T23:47:23.576Z,61.02
2018-07-10T23:49:57.187Z,61.47
2018-07-10T23:54:43.267Z,61.35
2018-07-10T23:57:12.565Z,61.57
2018-07-10T23:59:41.712Z,61.89
